createdAt,value
2017-07-08T00:00:21.833Z,99.90
2017-07-08T00:02:49.968Z,99.90
2017-07-08T00:05:18.106Z,99.90
2017-07-08T00:07:46.637Z,99.90
2017-07-08T00:10:14.805Z,99.90
2017-07-08T00:12:42.977Z,99.90
2017-07-08T00:15:11.127Z,99.90
2017-07-08T00:17:39.295Z,99.90
2017-07-08T00:20:08.223Z,99.90
2017-07-08T00:22:36.762Z,99.90
2017-07-08T00:25:05.883Z,99.90
2017-07-08T00:27:34.040Z,99.90
2017-07-08T00:30:02.214Z,99.90
2017-07-08T00:32:30.367Z,99.90
2017-07-08T00:34:58.525Z,99.90
2017-07-08T00:37:26.672Z,99.90
2017-07-08T00:39:54.988Z,99.90
2017-07-08T00:42:23.155Z,99.90
2017-07-08T00:44:51.291Z,99.90
2017-07-08T00:47:20.010Z,99.90
2017-07-08T00:49:48.210Z,99.90
2017-07-08T00:52:16.352Z,99.90
2017-07-08T00:54:45.270Z,99.90
2017-07-08T00:57:13.427Z,99.90
2017-07-08T00:59:41.559Z,99.90
2017-07-08T01:02:09.722Z,99.90
2017-07-08T01:04:37.841Z,99.90
2017-07-08T01:07:07.052Z,99.90
2017-07-08T01:09:35.177Z,99.90
2017-07-08T01:12:03.330Z,99.90
2017-07-08T01:14:31.502Z,99.90
2017-07-08T01:16:59.648Z,99.90
2017-07-08T01:19:27.828Z,99.90
2017-07-08T01:21:56.079Z,99.90
2017-07-08T01:24:24.225Z,99.90
2017-07-08T01:26:52.392Z,99.90
2017-07-08T01:29:20.532Z,99.90
2017-07-08T01:31:48.699Z,99.90
2017-07-08T01:34:16.842Z,99.90
2017-07-08T01:36:44.993Z,99.90
2017-07-08T01:39:13.704Z,99.90
2017-07-08T01:41:41.862Z,99.90
2017-07-08T01:44:10.075Z,99.90
2017-07-08T01:46:38.242Z,99.90
2017-07-08T01:49:06.424Z,99.90
2017-07-08T01:51:34.567Z,99.90
2017-07-08T01:54:03.047Z,99.90
2017-07-08T01:56:31.200Z,99.90
2017-07-08T01:58:59.362Z,99.90
2017-07-08T02:01:27.501Z,99.90
2017-07-08T02:03:55.646Z,99.90
2017-07-08T02:06:23.819Z,99.90
2017-07-08T02:08:51.966Z,99.90
2017-07-08T02:11:20.411Z,99.90
2017-07-08T02:13:49.319Z,99.90
2017-07-08T02:16:17.443Z,99.90
2017-07-08T02:18:46.311Z,99.90
2017-07-08T02:21:15.457Z,99.90
2017-07-08T02:23:43.604Z,99.90
2017-07-08T02:26:11.785Z,99.90
2017-07-08T02:28:39.958Z,99.90
2017-07-08T02:31:08.124Z,99.90
2017-07-08T02:33:36.256Z,99.90
2017-07-08T02:36:04.423Z,99.90
2017-07-08T02:38:32.556Z,99.90
2017-07-08T02:41:00.698Z,99.90
2017-07-08T02:43:28.961Z,99.90
2017-07-08T02:45:57.132Z,99.90
2017-07-08T02:48:25.279Z,99.90
2017-07-08T02:50:53.459Z,99.90
2017-07-08T02:53:21.580Z,99.90
2017-07-08T02:55:49.708Z,99.90
2017-07-08T02:58:17.898Z,99.90
2017-07-08T03:00:46.055Z,99.90
2017-07-08T03:03:14.181Z,99.90
2017-07-08T03:05:42.345Z,99.90
2017-07-08T03:08:10.497Z,99.90
2017-07-08T03:10:38.671Z,99.90
2017-07-08T03:13:06.819Z,99.90
2017-07-08T03:15:35.017Z,99.90
2017-07-08T03:18:03.191Z,99.90
2017-07-08T03:20:31.369Z,99.90
2017-07-08T03:22:59.511Z,99.90
2017-07-08T03:25:27.658Z,99.90
2017-07-08T03:27:55.809Z,99.90
2017-07-08T03:30:23.952Z,99.90
2017-07-08T03:32:52.907Z,99.90
2017-07-08T03:35:21.041Z,99.90
2017-07-08T03:37:49.184Z,99.90
2017-07-08T03:40:17.352Z,99.90
2017-07-08T03:42:45.513Z,99.90
2017-07-08T03:45:13.658Z,99.90
2017-07-08T03:47:41.801Z,99.90
2017-07-08T03:50:09.982Z,99.90
2017-07-08T03:52:38.910Z,99.90
2017-07-08T03:55:08.497Z,99.90
2017-07-08T03:57:37.501Z,99.90
2017-07-08T04:00:06.413Z,99.90
2017-07-08T04:02:34.589Z,99.90
2017-07-08T04:05:02.723Z,99.90
2017-07-08T04:07:30.895Z,99.90
2017-07-08T04:09:59.037Z,99.90
2017-07-08T04:12:27.219Z,99.90
2017-07-08T04:14:55.357Z,99.90
2017-07-08T04:17:23.501Z,99.90
2017-07-08T04:19:51.654Z,99.90
2017-07-08T04:22:19.807Z,99.90
2017-07-08T04:24:48.721Z,99.90
2017-07-08T04:27:16.881Z,99.90
2017-07-08T04:29:45.529Z,99.90
2017-07-08T04:32:13.660Z,99.90
2017-07-08T04:34:41.811Z,99.90
2017-07-08T04:37:09.960Z,99.90
2017-07-08T04:39:38.112Z,99.90
2017-07-08T04:42:07.041Z,99.90
2017-07-08T04:44:35.207Z,99.90
2017-07-08T04:47:03.359Z,99.90
2017-07-08T04:49:31.653Z,99.90
2017-07-08T04:51:59.800Z,99.90
2017-07-08T04:54:27.938Z,99.90
2017-07-08T04:56:56.098Z,99.90
2017-07-08T04:59:24.280Z,99.90
2017-07-08T05:01:52.436Z,99.90
2017-07-08T05:04:20.588Z,99.90
2017-07-08T05:06:48.762Z,99.90
2017-07-08T05:09:17.302Z,99.90
2017-07-08T05:11:45.490Z,99.90
2017-07-08T05:14:13.622Z,99.90
2017-07-08T05:16:41.796Z,99.90
2017-07-08T05:19:09.937Z,99.90
2017-07-08T05:21:38.084Z,99.90
2017-07-08T05:24:07.006Z,99.90
2017-07-08T05:26:35.136Z,99.90
2017-07-08T05:29:03.270Z,99.90
2017-07-08T05:31:31.634Z,99.90
2017-07-08T05:33:59.799Z,99.90
2017-07-08T05:36:27.929Z,99.90
2017-07-08T05:38:57.004Z,99.90
2017-07-08T05:41:25.501Z,99.90
2017-07-08T05:43:53.725Z,99.90
2017-07-08T05:46:21.965Z,99.90
2017-07-08T05:48:50.126Z,99.90
2017-07-08T05:51:18.777Z,99.90
2017-07-08T05:53:47.010Z,99.90
2017-07-08T05:56:16.020Z,99.90
2017-07-08T05:58:45.576Z,99.90
2017-07-08T06:01:13.769Z,99.90
2017-07-08T06:03:41.924Z,99.90
2017-07-08T06:06:10.069Z,99.90
2017-07-08T06:08:38.251Z,99.90
2017-07-08T06:11:06.406Z,99.90
2017-07-08T06:13:35.314Z,99.90
2017-07-08T06:16:03.480Z,99.90
2017-07-08T06:18:31.640Z,99.90
2017-07-08T06:20:59.869Z,99.90
2017-07-08T06:23:28.034Z,99.90
2017-07-08T06:25:56.228Z,99.90
2017-07-08T06:28:24.416Z,99.90
2017-07-08T06:30:53.378Z,99.90
2017-07-08T06:33:21.615Z,99.90
2017-07-08T06:35:50.268Z,99.90
2017-07-08T06:38:18.451Z,99.90
2017-07-08T06:40:46.610Z,99.90
2017-07-08T06:43:14.760Z,99.90
2017-07-08T06:45:42.935Z,99.90
2017-07-08T06:48:12.039Z,99.90
2017-07-08T06:50:40.213Z,99.90
2017-07-08T06:53:08.372Z,99.90
2017-07-08T06:55:36.507Z,99.90
2017-07-08T06:58:04.662Z,99.90
2017-07-08T07:00:32.780Z,99.90
2017-07-08T07:03:00.938Z,99.90
2017-07-08T07:05:29.080Z,99.90
2017-07-08T07:07:57.611Z,99.90
2017-07-08T07:10:25.790Z,99.90
2017-07-08T07:12:53.904Z,99.90
2017-07-08T07:15:22.812Z,99.90
2017-07-08T07:17:51.032Z,99.90
2017-07-08T07:20:19.279Z,99.90
2017-07-08T07:22:47.420Z,99.90
2017-07-08T07:25:15.559Z,99.90
2017-07-08T07:27:43.695Z,99.90
2017-07-08T07:30:11.933Z,99.90
2017-07-08T07:32:40.083Z,99.90
2017-07-08T07:35:08.483Z,99.90
2017-07-08T07:37:36.668Z,99.90
2017-07-08T07:40:04.803Z,99.90
2017-07-08T07:42:32.947Z,99.90
2017-07-08T07:45:01.109Z,99.90
2017-07-08T07:47:29.266Z,99.90
2017-07-08T07:49:57.400Z,99.90
2017-07-08T07:52:25.573Z,99.90
2017-07-08T07:54:53.775Z,99.80
2017-07-08T07:57:21.913Z,99.90
2017-07-08T07:59:50.214Z,99.90
2017-07-08T08:02:18.374Z,99.90
2017-07-08T08:04:46.523Z,99.90
2017-07-08T08:07:14.682Z,99.90
2017-07-08T08:09:42.871Z,99.90
2017-07-08T08:12:11.017Z,99.90
2017-07-08T08:14:39.189Z,99.90
2017-07-08T08:17:07.467Z,99.90
2017-07-08T08:19:35.670Z,99.90
2017-07-08T08:22:03.805Z,99.90
2017-07-08T08:24:31.968Z,99.90
2017-07-08T08:27:00.094Z,99.90
2017-07-08T08:29:28.295Z,99.90
2017-07-08T08:31:57.258Z,99.90
2017-07-08T08:34:25.434Z,99.90
2017-07-08T08:36:54.122Z,99.90
2017-07-08T08:39:22.268Z,99.80
2017-07-08T08:41:50.611Z,99.60
2017-07-08T08:44:18.746Z,99.40
2017-07-08T08:46:46.884Z,98.90
2017-07-08T08:49:15.063Z,99.20
2017-07-08T08:51:43.202Z,99.30
2017-07-08T08:54:11.356Z,99.30
2017-07-08T08:56:40.308Z,99.30
2017-07-08T08:59:08.430Z,99.30
2017-07-08T09:01:36.550Z,99.20
2017-07-08T09:04:04.703Z,98.40
2017-07-08T09:06:32.831Z,97.40
2017-07-08T09:09:01.749Z,95.30
2017-07-08T09:11:29.961Z,95.30
2017-07-08T09:13:58.097Z,94.60
2017-07-08T09:16:26.250Z,94.10
2017-07-08T09:18:54.414Z,93.20
2017-07-08T09:21:22.531Z,92.80
2017-07-08T09:23:50.687Z,93.20
2017-07-08T09:26:19.594Z,91.70
2017-07-08T09:28:47.728Z,91.60
2017-07-08T09:31:16.332Z,91.40
2017-07-08T09:33:44.470Z,90.70
2017-07-08T09:36:12.602Z,91.20
2017-07-08T09:38:40.777Z,92.00
2017-07-08T09:41:08.907Z,93.10
2017-07-08T09:43:37.044Z,92.60
2017-07-08T09:46:05.216Z,93.10
2017-07-08T09:48:33.328Z,92.40
2017-07-08T09:51:01.479Z,92.60
2017-07-08T09:53:29.623Z,92.80
2017-07-08T09:55:57.771Z,92.10
2017-07-08T09:58:25.935Z,91.30
2017-07-08T10:00:54.108Z,91.00
2017-07-08T10:03:23.069Z,90.50
2017-07-08T10:05:51.187Z,90.30
2017-07-08T10:08:19.371Z,90.00
2017-07-08T10:10:47.537Z,90.10
2017-07-08T10:13:15.669Z,90.10
2017-07-08T10:15:43.832Z,90.70
2017-07-08T10:18:11.992Z,90.80
2017-07-08T10:20:40.138Z,91.10
2017-07-08T10:23:08.335Z,91.50
2017-07-08T10:25:36.493Z,91.50
2017-07-08T10:28:04.634Z,91.40
2017-07-08T10:30:32.794Z,90.80
2017-07-08T10:33:00.912Z,90.50
2017-07-08T10:35:30.501Z,90.80
2017-07-08T10:37:58.657Z,90.90
2017-07-08T10:40:26.771Z,91.70
2017-07-08T10:42:54.906Z,91.50
2017-07-08T10:45:23.055Z,91.00
2017-07-08T10:47:51.214Z,90.80
2017-07-08T10:50:19.346Z,90.70
2017-07-08T10:52:47.511Z,91.20
2017-07-08T10:55:16.401Z,91.40
2017-07-08T10:57:44.548Z,91.40
2017-07-08T11:00:13.419Z,91.40
2017-07-08T11:02:41.541Z,91.10
2017-07-08T11:05:09.995Z,91.50
2017-07-08T11:07:38.228Z,91.50
2017-07-08T11:10:07.154Z,92.40
2017-07-08T11:12:35.298Z,91.60
2017-07-08T11:15:04.192Z,91.20
2017-07-08T11:17:33.238Z,91.00
2017-07-08T11:20:01.376Z,89.50
2017-07-08T11:22:29.514Z,89.30
2017-07-08T11:24:57.650Z,88.90
2017-07-08T11:27:26.703Z,88.00
2017-07-08T11:29:55.792Z,85.70
2017-07-08T11:32:23.999Z,85.70
2017-07-08T11:34:52.144Z,85.70
2017-07-08T11:37:21.269Z,83.00
2017-07-08T11:39:49.423Z,81.20
2017-07-08T11:42:17.531Z,81.00
2017-07-08T11:44:45.688Z,81.40
2017-07-08T11:47:14.576Z,82.80
2017-07-08T11:49:42.705Z,82.70
2017-07-08T11:52:12.462Z,83.70
2017-07-08T11:54:40.649Z,82.40
2017-07-08T11:57:08.822Z,81.90
2017-07-08T11:59:36.985Z,80.40
2017-07-08T12:02:05.137Z,80.30
2017-07-08T12:04:33.298Z,79.10
2017-07-08T12:07:01.489Z,78.00
2017-07-08T12:09:29.698Z,78.50
2017-07-08T12:11:57.851Z,78.90
2017-07-08T12:14:25.994Z,78.40
2017-07-08T12:16:54.259Z,77.20
2017-07-08T12:19:23.250Z,76.90
2017-07-08T12:21:51.438Z,78.90
2017-07-08T12:24:19.551Z,80.00
2017-07-08T12:26:47.700Z,79.20
2017-07-08T12:29:15.862Z,77.30
2017-07-08T12:31:44.053Z,78.60
2017-07-08T12:34:16.440Z,78.10
2017-07-08T12:36:44.571Z,78.50
2017-07-08T12:39:12.712Z,77.20
2017-07-08T12:41:40.955Z,75.10
2017-07-08T12:44:09.119Z,78.10
2017-07-08T12:46:37.272Z,80.60
2017-07-08T12:49:05.572Z,82.30
2017-07-08T12:51:33.765Z,81.90
2017-07-08T12:54:03.271Z,83.30
2017-07-08T12:56:31.981Z,83.20
2017-07-08T12:59:00.543Z,83.60
2017-07-08T13:01:28.708Z,82.90
2017-07-08T13:03:56.835Z,83.50
2017-07-08T13:06:25.630Z,83.00
2017-07-08T13:08:54.771Z,81.60
2017-07-08T13:11:22.906Z,82.30
2017-07-08T13:13:51.134Z,83.40
2017-07-08T13:16:19.680Z,81.50
2017-07-08T13:18:47.860Z,78.30
2017-07-08T13:21:16.016Z,77.20
2017-07-08T13:23:45.320Z,78.60
2017-07-08T13:26:13.494Z,77.90
2017-07-08T13:28:41.639Z,78.40
2017-07-08T13:31:09.833Z,79.70
2017-07-08T13:33:37.986Z,80.50
2017-07-08T13:36:06.110Z,80.40
2017-07-08T13:38:34.286Z,80.20
2017-07-08T13:41:02.458Z,80.30
2017-07-08T13:43:30.600Z,79.30
2017-07-08T13:45:58.780Z,79.00
2017-07-08T13:48:28.472Z,81.00
2017-07-08T13:50:56.661Z,80.30
2017-07-08T13:53:24.808Z,79.70
2017-07-08T13:55:52.928Z,80.20
2017-07-08T13:58:21.921Z,81.20
2017-07-08T14:00:50.074Z,83.10
2017-07-08T14:03:18.222Z,84.50
2017-07-08T14:05:46.341Z,87.20
2017-07-08T14:08:15.254Z,84.70
2017-07-08T14:10:43.405Z,83.90
2017-07-08T14:13:11.586Z,84.70
2017-07-08T14:15:39.729Z,85.30
2017-07-08T14:18:07.882Z,84.20
2017-07-08T14:20:36.948Z,85.00
2017-07-08T14:23:05.094Z,85.70
2017-07-08T14:25:34.002Z,87.70
2017-07-08T14:28:03.059Z,87.10
2017-07-08T14:30:31.223Z,87.90
2017-07-08T14:32:59.368Z,90.00
2017-07-08T14:35:27.954Z,86.70
2017-07-08T14:37:56.126Z,86.10
2017-07-08T14:40:24.530Z,86.30
2017-07-08T14:42:52.767Z,86.60
2017-07-08T14:45:20.909Z,86.80
2017-07-08T14:47:49.330Z,87.10
2017-07-08T14:50:19.202Z,87.10
2017-07-08T14:52:48.160Z,85.60
2017-07-08T14:55:16.292Z,85.60
2017-07-08T14:57:44.421Z,85.50
2017-07-08T15:00:12.607Z,84.70
2017-07-08T15:02:40.759Z,85.40
2017-07-08T15:05:08.928Z,86.20
2017-07-08T15:07:37.068Z,85.30
2017-07-08T15:10:05.207Z,86.40
2017-07-08T15:12:33.338Z,85.10
2017-07-08T15:15:01.482Z,85.30
2017-07-08T15:17:29.615Z,85.20
2017-07-08T15:19:57.769Z,85.40
2017-07-08T15:22:26.167Z,85.50
2017-07-08T15:24:54.340Z,84.90
2017-07-08T15:27:23.419Z,84.90
2017-07-08T15:29:51.538Z,85.10
2017-07-08T15:32:19.704Z,84.90
2017-07-08T15:34:48.599Z,84.60
2017-07-08T15:37:16.765Z,84.50
2017-07-08T15:39:44.893Z,84.80
2017-07-08T15:42:13.793Z,84.30
2017-07-08T15:44:41.954Z,84.20
2017-07-08T15:47:10.104Z,84.20
2017-07-08T15:49:38.266Z,84.60
2017-07-08T15:52:06.386Z,84.20
2017-07-08T15:54:34.541Z,83.90
2017-07-08T15:57:03.430Z,83.40
2017-07-08T15:59:32.384Z,83.30
2017-07-08T16:02:00.524Z,83.40
2017-07-08T16:04:28.666Z,81.60
2017-07-08T16:06:56.813Z,82.00
2017-07-08T16:09:24.941Z,81.40
2017-07-08T16:11:53.890Z,81.10
2017-07-08T16:14:22.034Z,83.00
2017-07-08T16:16:50.174Z,84.80
2017-07-08T16:19:18.321Z,83.80
2017-07-08T16:21:46.455Z,84.00
2017-07-08T16:24:14.612Z,84.10
2017-07-08T16:26:43.516Z,83.70
2017-07-08T16:29:11.667Z,83.70
2017-07-08T16:31:39.841Z,83.20
2017-07-08T16:34:08.046Z,83.60
2017-07-08T16:36:36.190Z,83.80
2017-07-08T16:39:04.373Z,83.50
2017-07-08T16:41:32.498Z,83.50
2017-07-08T16:44:00.631Z,83.70
2017-07-08T16:46:28.785Z,83.90
2017-07-08T16:48:56.899Z,84.00
2017-07-08T16:51:25.024Z,83.20
2017-07-08T16:53:53.928Z,82.70
2017-07-08T16:56:22.841Z,82.50
2017-07-08T16:58:50.980Z,81.80
2017-07-08T17:01:19.714Z,81.80
2017-07-08T17:03:47.895Z,81.00
2017-07-08T17:06:18.518Z,81.70
2017-07-08T17:08:46.689Z,82.00
2017-07-08T17:11:15.620Z,82.30
2017-07-08T17:13:44.457Z,82.40
2017-07-08T17:16:12.657Z,82.00
2017-07-08T17:18:40.801Z,82.00
2017-07-08T17:21:09.173Z,81.00
2017-07-08T17:23:38.078Z,81.30
2017-07-08T17:26:06.187Z,81.30
2017-07-08T17:28:34.407Z,82.60
2017-07-08T17:31:02.559Z,82.40
2017-07-08T17:33:30.735Z,83.30
2017-07-08T17:35:58.864Z,83.70
2017-07-08T17:38:27.000Z,82.80
2017-07-08T17:40:55.179Z,82.80
2017-07-08T17:43:23.297Z,82.30
2017-07-08T17:45:51.491Z,82.70
2017-07-08T17:48:19.603Z,83.10
2017-07-08T17:50:47.764Z,83.30
2017-07-08T17:53:15.892Z,82.60
2017-07-08T17:55:44.785Z,82.10
2017-07-08T17:58:12.963Z,82.00
2017-07-08T18:00:42.087Z,81.90
2017-07-08T18:03:10.800Z,82.20
2017-07-08T18:05:39.696Z,83.30
2017-07-08T18:08:07.868Z,83.30
2017-07-08T18:10:36.039Z,81.90
2017-07-08T18:13:04.177Z,83.00
2017-07-08T18:15:32.326Z,83.00
2017-07-08T18:18:01.316Z,83.20
2017-07-08T18:20:30.129Z,83.40
2017-07-08T18:22:58.250Z,83.00
2017-07-08T18:25:26.437Z,82.80
2017-07-08T18:27:55.331Z,83.60
2017-07-08T18:30:23.455Z,83.60
2017-07-08T18:32:51.585Z,83.20
2017-07-08T18:35:20.509Z,83.80
2017-07-08T18:37:48.625Z,84.60
2017-07-08T18:40:16.833Z,85.00
2017-07-08T18:42:45.013Z,85.70
2017-07-08T18:45:13.153Z,86.40
2017-07-08T18:47:41.387Z,86.20
2017-07-08T18:50:09.528Z,86.80
2017-07-08T18:52:38.842Z,87.60
2017-07-08T18:55:06.997Z,88.30
2017-07-08T18:57:35.165Z,88.90
2017-07-08T19:00:03.943Z,89.20
2017-07-08T19:02:32.285Z,90.00
2017-07-08T19:05:00.427Z,90.20
2017-07-08T19:07:29.337Z,90.60
2017-07-08T19:09:57.456Z,90.50
2017-07-08T19:12:25.638Z,90.70
2017-07-08T19:14:53.867Z,91.00
2017-07-08T19:17:22.038Z,91.00
2017-07-08T19:19:50.206Z,90.60
2017-07-08T19:22:18.343Z,91.10
2017-07-08T19:24:46.475Z,90.60
2017-07-08T19:27:14.627Z,90.80
2017-07-08T19:29:42.749Z,91.10
2017-07-08T19:32:10.873Z,90.60
2017-07-08T19:34:39.871Z,90.90
2017-07-08T19:37:08.011Z,90.90
2017-07-08T19:39:36.171Z,90.90
2017-07-08T19:42:04.375Z,90.90
2017-07-08T19:44:32.532Z,91.10
2017-07-08T19:47:00.898Z,91.40
2017-07-08T19:49:29.999Z,91.20
2017-07-08T19:51:58.947Z,91.60
2017-07-08T19:54:27.131Z,91.60
2017-07-08T19:56:55.246Z,91.50
2017-07-08T19:59:23.447Z,91.70
2017-07-08T20:01:51.597Z,92.30
2017-07-08T20:04:19.741Z,92.70
2017-07-08T20:06:47.939Z,93.00
2017-07-08T20:09:16.094Z,93.10
2017-07-08T20:11:44.220Z,93.30
2017-07-08T20:14:12.644Z,93.40
2017-07-08T20:16:40.779Z,93.40
2017-07-08T20:19:08.956Z,93.40
2017-07-08T20:21:37.095Z,93.40
2017-07-08T20:24:05.267Z,93.30
2017-07-08T20:26:33.943Z,93.40
2017-07-08T20:29:02.116Z,93.50
2017-07-08T20:31:30.998Z,94.00
2017-07-08T20:33:59.135Z,93.60
2017-07-08T20:36:27.719Z,93.80
2017-07-08T20:38:56.137Z,93.80
2017-07-08T20:41:24.276Z,94.10
2017-07-08T20:43:53.154Z,94.20
2017-07-08T20:46:21.330Z,94.60
2017-07-08T20:48:49.457Z,94.80
2017-07-08T20:51:17.595Z,94.80
2017-07-08T20:53:45.766Z,95.10
2017-07-08T20:56:15.767Z,95.20
2017-07-08T20:58:43.911Z,95.30
2017-07-08T21:01:12.761Z,95.20
2017-07-08T21:03:42.395Z,94.60
2017-07-08T21:06:10.538Z,94.50
2017-07-08T21:08:39.462Z,94.70
2017-07-08T21:11:07.596Z,94.90
2017-07-08T21:13:35.754Z,95.10
2017-07-08T21:16:03.918Z,95.20
2017-07-08T21:18:32.060Z,95.20
2017-07-08T21:21:00.195Z,95.40
2017-07-08T21:23:28.389Z,95.10
2017-07-08T21:25:56.562Z,95.20
2017-07-08T21:28:24.778Z,95.30
2017-07-08T21:30:53.243Z,95.40
2017-07-08T21:33:21.417Z,95.00
2017-07-08T21:35:50.304Z,94.40
2017-07-08T21:38:18.439Z,94.40
2017-07-08T21:40:46.595Z,94.20
2017-07-08T21:43:15.016Z,94.10
2017-07-08T21:45:43.968Z,93.50
2017-07-08T21:48:12.564Z,93.50
2017-07-08T21:50:40.691Z,93.30
2017-07-08T21:53:08.850Z,93.20
2017-07-08T21:55:36.999Z,93.10
2017-07-08T21:58:05.153Z,93.20
2017-07-08T22:00:33.279Z,93.30
2017-07-08T22:03:01.930Z,93.50
2017-07-08T22:05:30.043Z,93.50
2017-07-08T22:07:58.293Z,93.60
2017-07-08T22:10:26.461Z,93.50
2017-07-08T22:12:54.610Z,93.70
2017-07-08T22:15:22.754Z,93.70
2017-07-08T22:17:50.887Z,94.00
2017-07-08T22:20:19.039Z,94.10
2017-07-08T22:22:47.176Z,94.40
2017-07-08T22:25:16.110Z,94.70
2017-07-08T22:27:44.255Z,94.50
2017-07-08T22:30:13.333Z,94.50
2017-07-08T22:32:41.505Z,94.50
2017-07-08T22:35:10.028Z,94.50
2017-07-08T22:37:38.194Z,94.60
2017-07-08T22:40:06.891Z,94.60
2017-07-08T22:42:35.733Z,94.70
2017-07-08T22:45:04.632Z,94.40
2017-07-08T22:47:32.756Z,94.40
2017-07-08T22:50:00.913Z,94.40
2017-07-08T22:52:29.810Z,94.50
2017-07-08T22:54:58.714Z,94.40
2017-07-08T22:57:26.878Z,94.30
2017-07-08T22:59:55.022Z,94.40
2017-07-08T23:02:23.305Z,94.30
2017-07-08T23:04:52.236Z,94.40
2017-07-08T23:07:20.393Z,94.40
2017-07-08T23:09:48.560Z,94.50
2017-07-08T23:12:16.686Z,94.50
2017-07-08T23:14:45.582Z,94.60
2017-07-08T23:17:13.706Z,94.90
2017-07-08T23:19:41.898Z,95.10
2017-07-08T23:22:10.031Z,95.00
2017-07-08T23:24:38.177Z,95.00
2017-07-08T23:27:06.325Z,95.10
2017-07-08T23:29:34.483Z,95.10
2017-07-08T23:32:02.622Z,95.00
2017-07-08T23:34:30.737Z,95.00
2017-07-08T23:36:58.924Z,95.00
2017-07-08T23:39:27.051Z,95.00
2017-07-08T23:41:56.846Z,95.10
2017-07-08T23:44:24.996Z,95.10
2017-07-08T23:46:53.190Z,95.00
2017-07-08T23:49:21.328Z,95.10
2017-07-08T23:51:49.484Z,95.00
2017-07-08T23:54:17.787Z,95.10
2017-07-08T23:56:45.955Z,94.90
2017-07-08T23:59:14.120Z,95.10
